createdAt,value
2023-05-21T00:02:30.126Z,102354.66
2023-05-21T00:04:58.165Z,102350.25
2023-05-21T00:07:26.098Z,102349.28
2023-05-21T00:09:54.063Z,102353.81
2023-05-21T00:12:21.979Z,102341.44
2023-05-21T00:14:49.860Z,102343.53
2023-05-21T00:17:18.057Z,102352.72
2023-05-21T00:19:47.773Z,102356.44
2023-05-21T00:22:16.022Z,102344.94
2023-05-21T00:24:45.478Z,102346.88
2023-05-21T00:27:13.452Z,102331.03
2023-05-21T00:29:42.925Z,102340.19
2023-05-21T00:32:12.115Z,102343.91
2023-05-21T00:34:40.764Z,102341.25
2023-05-21T00:37:10.829Z,102349.19
2023-05-21T00:39:38.741Z,102344.66
2023-05-21T00:42:06.751Z,102351.81
2023-05-21T00:44:35.454Z,102349.13
2023-05-21T00:47:03.415Z,102346.44
2023-05-21T00:49:31.364Z,102347.28
2023-05-21T00:52:01.476Z,102342.81
2023-05-21T00:54:31.309Z,102335.59
2023-05-21T00:56:59.177Z,102331.13
2023-05-21T00:59:27.033Z,102334.84
2023-05-21T01:01:56.400Z,102334.19
2023-05-21T01:04:24.408Z,102325.63
2023-05-21T01:06:53.523Z,102327.69
2023-05-21T01:09:21.555Z,102328.91
2023-05-21T01:11:51.539Z,102330.03
2023-05-21T01:14:19.800Z,102330.19
2023-05-21T01:16:49.357Z,102334.56
2023-05-21T01:19:18.182Z,102332.78
2023-05-21T01:21:47.192Z,102321.97
2023-05-21T01:24:16.766Z,102329.13
2023-05-21T01:26:46.601Z,102324.84
2023-05-21T01:29:14.710Z,102323.19
2023-05-21T01:31:55.613Z,102319.78
2023-05-21T01:34:25.438Z,102318.34
2023-05-21T01:36:57.043Z,102321.16
2023-05-21T01:39:28.275Z,102308.84
2023-05-21T01:41:56.264Z,102318.53
2023-05-21T01:44:25.366Z,102321.16
2023-05-21T01:46:53.955Z,102328.22
2023-05-21T01:49:22.153Z,102320.97
2023-05-21T01:51:50.159Z,102329.75
2023-05-21T01:54:18.034Z,102324.38
2023-05-21T01:56:47.964Z,102324.25
2023-05-21T01:59:17.243Z,102321.56
2023-05-21T02:01:45.183Z,102324.25
2023-05-21T02:04:13.193Z,102328.91
2023-05-21T02:06:41.848Z,102325.47
2023-05-21T02:09:09.864Z,102330.91
2023-05-21T02:11:37.764Z,102331.03
2023-05-21T02:14:08.034Z,102333.59
2023-05-21T02:16:35.985Z,102334.47
2023-05-21T02:19:04.807Z,102339.75
2023-05-21T02:21:32.752Z,102338.84
2023-05-21T02:24:00.681Z,102339.81
2023-05-21T02:26:29.025Z,102331.13
2023-05-21T02:28:56.960Z,102330.41
2023-05-21T02:31:26.296Z,102327.94
2023-05-21T02:33:54.270Z,102333.47
2023-05-21T02:36:22.174Z,102328.22
2023-05-21T02:38:50.100Z,102337.19
2023-05-21T02:41:18.012Z,102329.09
2023-05-21T02:43:45.959Z,102329.91
2023-05-21T02:46:13.901Z,102324.50
2023-05-21T02:48:43.203Z,102319.09
2023-05-21T02:51:11.525Z,102314.59
2023-05-21T02:53:40.193Z,102318.09
2023-05-21T02:56:08.492Z,102318.97
2023-05-21T02:58:36.423Z,102319.78
2023-05-21T03:01:04.367Z,102327.78
2023-05-21T03:03:32.457Z,102328.81
2023-05-21T03:06:01.915Z,102314.72
2023-05-21T03:08:29.798Z,102327.38
2023-05-21T03:10:57.820Z,102329.34
2023-05-21T03:13:25.906Z,102325.19
2023-05-21T03:15:56.528Z,102320.81
2023-05-21T03:18:24.455Z,102319.97
2023-05-21T03:20:52.326Z,102327.91
2023-05-21T03:23:21.553Z,102328.94
2023-05-21T03:25:50.878Z,102318.34
2023-05-21T03:28:19.794Z,102315.53
2023-05-21T03:30:49.761Z,102316.44
2023-05-21T03:33:17.716Z,102312.91
2023-05-21T03:35:45.839Z,102307.78
2023-05-21T03:38:13.876Z,102312.09
2023-05-21T03:40:43.251Z,102311.28
2023-05-21T03:43:11.157Z,102317.59
2023-05-21T03:45:39.890Z,102317.59
2023-05-21T03:48:09.498Z,102309.63
2023-05-21T03:50:37.599Z,102315.03
2023-05-21T03:53:05.545Z,102311.59
2023-05-21T03:55:33.551Z,102308.09
2023-05-21T03:58:03.407Z,102310.81
2023-05-21T04:00:32.642Z,102304.75
2023-05-21T04:03:00.754Z,102302.06
2023-05-21T04:05:28.750Z,102302.94
2023-05-21T04:07:58.773Z,102303.81
2023-05-21T04:10:27.033Z,102306.53
2023-05-21T04:12:54.976Z,102305.69
2023-05-21T04:15:24.544Z,102305.81
2023-05-21T04:17:52.609Z,102299.84
2023-05-21T04:20:20.639Z,102301.81
2023-05-21T04:22:48.523Z,102300.22
2023-05-21T04:25:16.485Z,102300.25
2023-05-21T04:27:47.821Z,102300.28
2023-05-21T04:30:15.835Z,102299.41
2023-05-21T04:32:48.256Z,102288.88
2023-05-21T04:35:16.338Z,102296.97
2023-05-21T04:37:45.951Z,102299.88
2023-05-21T04:40:18.190Z,102296.50
2023-05-21T04:42:46.706Z,102292.16
2023-05-21T04:45:14.757Z,102297.47
2023-05-21T04:47:46.201Z,102298.31
2023-05-21T04:50:14.093Z,102286.75
2023-05-21T04:52:42.208Z,102289.50
2023-05-21T04:55:10.426Z,102283.41
2023-05-21T04:57:38.486Z,102287.91
2023-05-21T05:00:08.669Z,102279.91
2023-05-21T05:02:36.767Z,102282.66
2023-05-21T05:05:06.820Z,102288.84
2023-05-21T05:07:34.725Z,102284.38
2023-05-21T05:10:02.635Z,102288.72
2023-05-21T05:12:30.504Z,102287.72
2023-05-21T05:14:58.382Z,102299.13
2023-05-21T05:17:26.342Z,102293.63
2023-05-21T05:19:54.288Z,102292.34
2023-05-21T05:22:23.672Z,102300.34
2023-05-21T05:24:51.589Z,102297.28
2023-05-21T05:27:19.555Z,102298.88
2023-05-21T05:29:47.925Z,102301.22
2023-05-21T05:32:15.932Z,102301.50
2023-05-21T05:34:44.064Z,102292.16
2023-05-21T05:37:11.960Z,102298.97
2023-05-21T05:39:41.219Z,102296.22
2023-05-21T05:42:09.084Z,102294.53
2023-05-21T05:44:37.019Z,102291.81
2023-05-21T05:47:09.227Z,102297.06
2023-05-21T05:49:37.129Z,102295.94
2023-05-21T05:52:05.759Z,102293.88
2023-05-21T05:54:33.631Z,102291.88
2023-05-21T05:57:02.903Z,102302.44
2023-05-21T05:59:30.865Z,102298.69
2023-05-21T06:01:58.833Z,102308.19
2023-05-21T06:04:29.946Z,102296.47
2023-05-21T06:06:58.580Z,102304.28
2023-05-21T06:09:26.540Z,102305.88
2023-05-21T06:11:54.524Z,102311.00
2023-05-21T06:14:23.808Z,102301.94
2023-05-21T06:16:51.701Z,102304.47
2023-05-21T06:19:20.164Z,102307.88
2023-05-21T06:21:48.561Z,102306.78
2023-05-21T06:24:16.676Z,102309.19
2023-05-21T06:26:44.596Z,102308.88
2023-05-21T06:29:14.856Z,102309.50
2023-05-21T06:31:44.847Z,102309.16
2023-05-21T06:34:12.930Z,102316.97
2023-05-21T06:36:41.184Z,102314.81
2023-05-21T06:39:09.107Z,102323.31
2023-05-21T06:41:38.157Z,102322.94
2023-05-21T06:44:06.512Z,102320.75
2023-05-21T06:46:35.534Z,102324.03
2023-05-21T06:49:07.061Z,102320.13
2023-05-21T06:51:35.066Z,102322.44
2023-05-21T06:54:03.107Z,102320.31
2023-05-21T06:56:31.069Z,102329.66
2023-05-21T06:58:59.406Z,102335.59
2023-05-21T07:01:27.699Z,102337.91
2023-05-21T07:03:55.768Z,102335.03
2023-05-21T07:06:25.093Z,102334.72
2023-05-21T07:08:53.051Z,102327.25
2023-05-21T07:11:21.557Z,102330.38
2023-05-21T07:13:49.485Z,102328.31
2023-05-21T07:16:18.019Z,102320.88
2023-05-21T07:18:46.114Z,102326.72
2023-05-21T07:21:14.065Z,102327.25
2023-05-21T07:23:43.304Z,102331.34
2023-05-21T07:26:11.416Z,102327.38
2023-05-21T07:28:39.350Z,102333.22
2023-05-21T07:31:08.454Z,102328.25
2023-05-21T07:33:36.489Z,102326.16
2023-05-21T07:36:04.673Z,102329.25
2023-05-21T07:38:32.621Z,102331.63
2023-05-21T07:41:01.959Z,102341.00
2023-05-21T07:43:30.042Z,102338.75
2023-05-21T07:45:57.923Z,102346.38
2023-05-21T07:48:27.015Z,102341.34
2023-05-21T07:50:56.540Z,102334.50
2023-05-21T07:53:24.480Z,102340.31
2023-05-21T07:55:52.472Z,102329.97
2023-05-21T07:58:21.798Z,102320.81
2023-05-21T08:00:51.198Z,102322.25
2023-05-21T08:03:19.718Z,102311.81
2023-05-21T08:05:49.463Z,102315.72
2023-05-21T08:08:17.451Z,102306.31
2023-05-21T08:10:45.456Z,102319.56
2023-05-21T08:13:13.418Z,102313.94
2023-05-21T08:15:42.848Z,102317.25
2023-05-21T08:18:12.034Z,102316.94
2023-05-21T08:20:40.068Z,102319.41
2023-05-21T08:23:08.009Z,102312.13
2023-05-21T08:25:36.169Z,102303.94
2023-05-21T08:28:04.472Z,102305.44
2023-05-21T08:30:32.351Z,102305.19
2023-05-21T08:33:02.366Z,102310.34
2023-05-21T08:35:30.485Z,102300.69
2023-05-21T08:37:58.816Z,102295.28
2023-05-21T08:40:26.817Z,102303.75
2023-05-21T08:42:54.878Z,102285.50
2023-05-21T08:45:23.443Z,102299.06
2023-05-21T08:47:56.053Z,102303.28
2023-05-21T08:50:27.210Z,102303.19
2023-05-21T08:52:57.716Z,102299.47
2023-05-21T08:55:26.961Z,102303.47
2023-05-21T08:57:55.174Z,102308.28
2023-05-21T09:00:24.302Z,102303.38
2023-05-21T09:02:54.527Z,102297.56
2023-05-21T09:05:22.831Z,102296.09
2023-05-21T09:08:03.497Z,102300.97
2023-05-21T09:10:35.287Z,102301.84
2023-05-21T09:13:03.228Z,102296.28
2023-05-21T09:15:31.569Z,102294.19
2023-05-21T09:17:59.584Z,102295.50
2023-05-21T09:20:27.826Z,102300.72
2023-05-21T09:22:57.326Z,102298.34
2023-05-21T09:25:28.170Z,102286.97
2023-05-21T09:27:56.629Z,102289.19
2023-05-21T09:30:34.835Z,102296.88
2023-05-21T09:33:04.059Z,102290.94
2023-05-21T09:35:32.014Z,102287.88
2023-05-21T09:38:01.947Z,102292.22
2023-05-21T09:40:29.873Z,102295.88
2023-05-21T09:42:57.807Z,102290.91
2023-05-21T09:45:26.220Z,102287.06
2023-05-21T09:47:54.812Z,102281.22
2023-05-21T09:50:23.300Z,102280.63
2023-05-21T09:52:53.104Z,102283.84
2023-05-21T09:55:24.016Z,102285.28
2023-05-21T09:57:52.145Z,102280.28
2023-05-21T10:00:21.340Z,102284.19
2023-05-21T10:02:49.673Z,102281.00
2023-05-21T10:05:18.427Z,102285.94
2023-05-21T10:07:48.656Z,102291.06
2023-05-21T10:10:17.079Z,102270.97
2023-05-21T10:12:47.719Z,102268.19
2023-05-21T10:15:17.454Z,102265.84
2023-05-21T10:17:46.251Z,102264.59
2023-05-21T10:20:14.599Z,102267.50
2023-05-21T10:22:42.550Z,102264.50
2023-05-21T10:25:10.596Z,102262.94
2023-05-21T10:27:38.509Z,102261.28
2023-05-21T10:30:08.708Z,102255.31
2023-05-21T10:32:36.977Z,102263.59
2023-05-21T10:35:05.857Z,102260.88
2023-05-21T10:37:33.809Z,102254.84
2023-05-21T10:40:02.281Z,102253.06
2023-05-21T10:43:15.262Z,102246.84
2023-05-21T10:45:55.198Z,102242.53
2023-05-21T10:48:34.494Z,102243.97
2023-05-21T10:51:29.110Z,102253.59
2023-05-21T10:54:18.360Z,102255.03
2023-05-21T10:56:48.336Z,102246.19
2023-05-21T10:59:23.158Z,102249.88
2023-05-21T11:01:53.708Z,102242.88
2023-05-21T11:04:26.652Z,102242.75
2023-05-21T11:06:54.961Z,102242.63
2023-05-21T11:09:23.122Z,102237.75
2023-05-21T11:11:52.427Z,102230.63
2023-05-21T11:14:32.004Z,102241.25
2023-05-21T11:17:02.087Z,102239.78
2023-05-21T11:19:39.664Z,102235.97
2023-05-21T11:22:11.922Z,102228.75
2023-05-21T11:24:41.363Z,102219.16
2023-05-21T11:27:09.852Z,102221.91
2023-05-21T11:29:42.118Z,102223.03
2023-05-21T11:32:12.361Z,102221.16
2023-05-21T11:34:42.052Z,102217.53
2023-05-21T11:37:46.136Z,102207.00
2023-05-21T11:40:30.935Z,102217.53
2023-05-21T11:42:58.967Z,102216.91
2023-05-21T11:45:31.013Z,102213.59
2023-05-21T11:48:00.685Z,102213.44
2023-05-21T11:50:30.689Z,102212.34
2023-05-21T11:52:59.893Z,102217.72
2023-05-21T11:55:27.939Z,102211.97
2023-05-21T11:57:56.521Z,102214.03
2023-05-21T12:00:24.640Z,102222.13
2023-05-21T12:02:53.453Z,102210.81
2023-05-21T12:05:23.685Z,102209.13
2023-05-21T12:07:51.630Z,102206.00
2023-05-21T12:10:22.585Z,102205.03
2023-05-21T12:12:55.529Z,102204.03
2023-05-21T12:15:26.036Z,102198.56
2023-05-21T12:17:54.295Z,102202.56
2023-05-21T12:20:23.898Z,102198.66
2023-05-21T12:22:52.057Z,102194.75
2023-05-21T12:25:21.206Z,102200.06
2023-05-21T12:27:50.290Z,102189.88
2023-05-21T12:30:18.251Z,102193.88
2023-05-21T12:32:46.162Z,102185.22
2023-05-21T12:35:23.965Z,102193.97
2023-05-21T12:37:52.705Z,102192.28
2023-05-21T12:40:21.053Z,102190.53
2023-05-21T12:42:49.481Z,102183.19
2023-05-21T12:45:18.790Z,102187.88
2023-05-21T12:47:49.906Z,102179.88
2023-05-21T12:50:18.102Z,102177.34
2023-05-21T12:52:47.404Z,102189.97
2023-05-21T12:55:16.750Z,102183.38
2023-05-21T12:57:44.846Z,102183.63
2023-05-21T13:00:14.395Z,102179.72
2023-05-21T13:02:43.549Z,102180.06
2023-05-21T13:05:17.451Z,102175.84
2023-05-21T13:07:47.597Z,102181.31
2023-05-21T13:10:17.677Z,102170.28
2023-05-21T13:12:46.119Z,102172.38
2023-05-21T13:15:14.431Z,102174.97
2023-05-21T13:17:42.579Z,102167.13
2023-05-21T13:20:12.524Z,102171.63
2023-05-21T13:22:42.591Z,102174.69
2023-05-21T13:25:11.184Z,102186.13
2023-05-21T13:27:41.927Z,102167.31
2023-05-21T13:30:11.779Z,102178.38
2023-05-21T13:32:40.797Z,102169.59
2023-05-21T13:35:10.163Z,102181.63
2023-05-21T13:37:38.156Z,102179.13
2023-05-21T13:40:07.351Z,102183.03
2023-05-21T13:42:35.563Z,102174.47
2023-05-21T13:45:05.380Z,102172.53
2023-05-21T13:47:33.594Z,102177.91
2023-05-21T13:50:01.640Z,102177.84
2023-05-21T13:52:29.838Z,102176.28
2023-05-21T13:54:57.711Z,102171.38
2023-05-21T13:57:26.860Z,102170.06
2023-05-21T13:59:54.818Z,102166.44
2023-05-21T14:02:24.301Z,102180.53
2023-05-21T14:04:52.370Z,102168.38
2023-05-21T14:07:20.340Z,102171.41
2023-05-21T14:09:48.724Z,102154.91
2023-05-21T14:12:16.994Z,102158.53
2023-05-21T14:14:45.057Z,102160.22
2023-05-21T14:17:13.046Z,102158.47
2023-05-21T14:19:42.501Z,102152.59
2023-05-21T14:22:10.437Z,102155.31
2023-05-21T14:24:38.343Z,102149.44
2023-05-21T14:27:06.661Z,102157.66
2023-05-21T14:29:34.640Z,102156.34
2023-05-21T14:32:02.707Z,102139.38
2023-05-21T14:34:30.753Z,102157.13
2023-05-21T14:37:00.510Z,102147.19
2023-05-21T14:39:28.605Z,102152.84
2023-05-21T14:41:56.584Z,102140.50
2023-05-21T14:44:24.828Z,102143.25
2023-05-21T14:46:52.837Z,102148.47
2023-05-21T14:49:20.832Z,102151.50
2023-05-21T14:51:49.443Z,102149.31
2023-05-21T14:54:18.791Z,102144.00
2023-05-21T14:56:46.734Z,102138.16
2023-05-21T14:59:14.654Z,102136.81
2023-05-21T15:01:42.737Z,102133.91
2023-05-21T15:04:11.158Z,102142.16
2023-05-21T15:06:39.224Z,102137.63
2023-05-21T15:09:07.169Z,102139.44
2023-05-21T15:11:36.463Z,102136.84
2023-05-21T15:14:04.386Z,102138.50
2023-05-21T15:16:32.411Z,102136.31
2023-05-21T15:19:00.397Z,102132.44
2023-05-21T15:21:28.402Z,102124.84
2023-05-21T15:23:56.385Z,102121.81
2023-05-21T15:26:25.601Z,102124.50
2023-05-21T15:28:54.904Z,102121.53
2023-05-21T15:31:22.904Z,102122.28
2023-05-21T15:33:50.788Z,102125.34
2023-05-21T15:36:18.701Z,102125.81
2023-05-21T15:38:46.786Z,102129.88
2023-05-21T15:41:14.675Z,102127.38
2023-05-21T15:43:43.401Z,102118.75
2023-05-21T15:46:12.932Z,102114.34
2023-05-21T15:48:41.311Z,102116.13
2023-05-21T15:51:09.573Z,102121.41
2023-05-21T15:53:37.640Z,102116.28
2023-05-21T15:56:05.808Z,102117.63
2023-05-21T15:58:33.870Z,102116.41
2023-05-21T16:01:01.856Z,102114.97
2023-05-21T16:03:31.224Z,102119.16
2023-05-21T16:05:59.149Z,102107.84
2023-05-21T16:08:27.162Z,102113.06
2023-05-21T16:10:55.246Z,102107.03
2023-05-21T16:13:23.167Z,102115.81
2023-05-21T16:15:51.771Z,102107.06
2023-05-21T16:18:19.654Z,102106.66
2023-05-21T16:20:49.444Z,102108.91
2023-05-21T16:23:17.401Z,102104.00
2023-05-21T16:25:45.347Z,102109.72
2023-05-21T16:28:13.466Z,102110.69
2023-05-21T16:30:41.385Z,102106.56
2023-05-21T16:33:10.058Z,102107.31
2023-05-21T16:35:38.362Z,102111.03
2023-05-21T16:38:24.248Z,102094.72
2023-05-21T16:40:53.556Z,102102.44
2023-05-21T16:43:25.464Z,102094.75
2023-05-21T16:45:54.049Z,102098.59
2023-05-21T16:48:25.499Z,102092.28
2023-05-21T16:50:53.448Z,102099.09
2023-05-21T16:53:22.723Z,102092.75
2023-05-21T16:55:50.736Z,102092.53
2023-05-21T16:58:19.108Z,102104.09
2023-05-21T17:00:47.413Z,102100.78
2023-05-21T17:03:16.049Z,102100.88
2023-05-21T17:05:44.401Z,102097.25
2023-05-21T17:08:12.597Z,102100.69
2023-05-21T17:10:41.990Z,102106.97
2023-05-21T17:13:21.618Z,102112.50
2023-05-21T17:15:51.611Z,102109.88
2023-05-21T17:18:19.577Z,102115.13
2023-05-21T17:20:47.580Z,102117.13
2023-05-21T17:23:15.715Z,102110.41
2023-05-21T17:25:45.026Z,102111.53
2023-05-21T17:28:12.905Z,102105.31
2023-05-21T17:30:40.948Z,102104.97
2023-05-21T17:33:10.385Z,102108.94
2023-05-21T17:35:39.004Z,102099.22
2023-05-21T17:38:07.496Z,102108.50
2023-05-21T17:40:35.619Z,102098.25
2023-05-21T17:43:07.331Z,102097.91
2023-05-21T17:45:35.985Z,102104.53
2023-05-21T17:48:04.524Z,102095.34
2023-05-21T17:50:32.577Z,102097.38
2023-05-21T17:53:00.817Z,102102.81
2023-05-21T17:55:28.785Z,102098.13
2023-05-21T17:57:56.904Z,102105.31
2023-05-21T18:00:26.738Z,102104.59
2023-05-21T18:02:55.159Z,102107.78
2023-05-21T18:05:23.690Z,102100.88
2023-05-21T18:07:51.564Z,102107.41
2023-05-21T18:10:19.451Z,102113.22
2023-05-21T18:12:50.379Z,102112.38
2023-05-21T18:15:18.538Z,102116.44
2023-05-21T18:17:47.976Z,102114.22
2023-05-21T18:20:16.476Z,102111.94
2023-05-21T18:22:45.632Z,102103.06
2023-05-21T18:25:13.501Z,102104.44
2023-05-21T18:27:41.400Z,102114.94
2023-05-21T18:30:10.666Z,102112.47
2023-05-21T18:32:39.542Z,102119.81
2023-05-21T18:35:11.979Z,102113.44
2023-05-21T18:37:44.780Z,102110.09
2023-05-21T18:40:13.860Z,102119.66
2023-05-21T18:42:41.869Z,102123.06
2023-05-21T18:45:11.218Z,102120.84
2023-05-21T18:47:40.423Z,102126.50
2023-05-21T18:50:11.945Z,102124.91
2023-05-21T18:52:40.376Z,102120.69
2023-05-21T18:55:09.151Z,102127.00
2023-05-21T18:57:38.175Z,102127.66
2023-05-21T19:00:09.496Z,102134.81
2023-05-21T19:02:37.743Z,102140.59
2023-05-21T19:05:06.576Z,102135.50
2023-05-21T19:07:36.322Z,102130.19
2023-05-21T19:10:04.463Z,102129.69
2023-05-21T19:12:32.413Z,102133.81
2023-05-21T19:15:00.426Z,102131.19
2023-05-21T19:17:28.397Z,102137.03
2023-05-21T19:19:56.801Z,102130.69
2023-05-21T19:22:24.984Z,102124.94
2023-05-21T19:24:54.393Z,102122.72
2023-05-21T19:27:22.311Z,102125.84
2023-05-21T19:29:50.216Z,102129.91
2023-05-21T19:32:18.195Z,102127.03
2023-05-21T19:34:46.890Z,102137.56
2023-05-21T19:37:14.966Z,102127.84
2023-05-21T19:39:43.501Z,102130.53
2023-05-21T19:42:13.179Z,102123.13
2023-05-21T19:44:41.372Z,102126.47
2023-05-21T19:47:09.538Z,102127.84
2023-05-21T19:49:37.696Z,102132.94
2023-05-21T19:52:06.245Z,102134.84
2023-05-21T19:54:34.215Z,102131.41
2023-05-21T19:57:02.256Z,102137.81
2023-05-21T19:59:31.703Z,102147.31
2023-05-21T20:01:59.695Z,102134.41
2023-05-21T20:04:28.170Z,102146.56
2023-05-21T20:06:56.133Z,102153.56
2023-05-21T20:09:24.096Z,102148.69
2023-05-21T20:11:52.535Z,102145.53
2023-05-21T20:14:20.799Z,102158.56
2023-05-21T20:16:50.347Z,102162.56
2023-05-21T20:19:18.679Z,102167.78
2023-05-21T20:21:46.796Z,102163.06
2023-05-21T20:24:14.922Z,102167.38
2023-05-21T20:26:45.091Z,102170.66
2023-05-21T20:29:13.112Z,102187.94
2023-05-21T20:31:42.035Z,102186.34
2023-05-21T20:34:12.405Z,102186.44
2023-05-21T20:36:41.515Z,102186.53
2023-05-21T20:39:09.661Z,102190.38
2023-05-21T20:41:38.768Z,102197.91
2023-05-21T20:44:07.084Z,102195.41
2023-05-21T20:46:38.567Z,102191.34
2023-05-21T20:49:06.880Z,102197.28
2023-05-21T20:51:36.191Z,102196.03
2023-05-21T20:54:04.080Z,102200.13
2023-05-21T20:56:41.929Z,102194.28
2023-05-21T20:59:11.998Z,102195.66
2023-05-21T21:01:40.744Z,102204.22
2023-05-21T21:04:09.395Z,102210.63
2023-05-21T21:06:40.545Z,102207.47
2023-05-21T21:09:08.624Z,102207.03
2023-05-21T21:11:36.955Z,102213.75
2023-05-21T21:14:04.955Z,102214.84
2023-05-21T21:16:33.228Z,102213.31
2023-05-21T21:19:01.586Z,102205.47
2023-05-21T21:21:29.687Z,102203.06
2023-05-21T21:23:59.050Z,102204.16
2023-05-21T21:26:27.272Z,102211.56
2023-05-21T21:28:56.304Z,102202.00
2023-05-21T21:31:24.741Z,102201.34
2023-05-21T21:33:52.795Z,102199.00
2023-05-21T21:36:20.826Z,102200.25
2023-05-21T21:38:48.756Z,102205.97
2023-05-21T21:41:19.464Z,102196.63
2023-05-21T21:43:47.472Z,102195.31
2023-05-21T21:46:15.501Z,102207.16
2023-05-21T21:48:43.491Z,102206.56
2023-05-21T21:51:11.671Z,102198.03
2023-05-21T21:53:39.543Z,102211.72
2023-05-21T21:56:07.722Z,102209.41
2023-05-21T21:58:37.023Z,102210.59
2023-05-21T22:01:04.982Z,102216.22
2023-05-21T22:03:33.751Z,102204.88
2023-05-21T22:06:02.000Z,102210.44
2023-05-21T22:08:29.930Z,102210.59
2023-05-21T22:10:58.869Z,102205.25
2023-05-21T22:13:29.196Z,102212.56
2023-05-21T22:15:59.355Z,102209.09
2023-05-21T22:18:39.405Z,102215.38
2023-05-21T22:21:10.028Z,102207.47
2023-05-21T22:23:38.578Z,102203.19
2023-05-21T22:26:06.737Z,102207.03
2023-05-21T22:28:34.804Z,102202.75
2023-05-21T22:31:04.298Z,102205.72
2023-05-21T22:33:32.454Z,102205.00
2023-05-21T22:36:00.464Z,102200.59
2023-05-21T22:38:28.418Z,102200.66
2023-05-21T22:40:56.352Z,102200.72
2023-05-21T22:43:24.328Z,102199.91
2023-05-21T22:45:52.258Z,102202.66
2023-05-21T22:48:22.625Z,102198.16
2023-05-21T22:50:53.414Z,102207.16
2023-05-21T22:53:21.594Z,102203.84
2023-05-21T22:55:49.608Z,102209.31
2023-05-21T22:58:17.663Z,102206.78
2023-05-21T23:00:45.648Z,102210.44
2023-05-21T23:03:13.653Z,102207.94
2023-05-21T23:05:43.172Z,102200.19
2023-05-21T23:08:11.267Z,102196.16
2023-05-21T23:10:39.447Z,102203.13
2023-05-21T23:13:07.642Z,102212.16
2023-05-21T23:15:38.755Z,102220.34
2023-05-21T23:18:07.723Z,102214.25
2023-05-21T23:20:37.153Z,102214.25
2023-05-21T23:23:07.075Z,102208.09
2023-05-21T23:25:35.418Z,102209.13
2023-05-21T23:28:03.361Z,102200.44
2023-05-21T23:30:31.266Z,102205.88
2023-05-21T23:32:59.288Z,102203.25
2023-05-21T23:35:27.346Z,102209.59
2023-05-21T23:37:55.301Z,102203.38
2023-05-21T23:40:24.591Z,102201.66
2023-05-21T23:42:52.530Z,102203.59
2023-05-21T23:45:20.557Z,102209.09
2023-05-21T23:47:48.503Z,102207.56
2023-05-21T23:50:16.592Z,102206.84
2023-05-21T23:52:44.462Z,102204.34
2023-05-21T23:55:14.688Z,102214.28
2023-05-21T23:57:44.115Z,102202.78
